createdAt,value
2023-03-08T00:02:01.806Z,3.53
2023-03-08T00:04:28.568Z,4.23
2023-03-08T00:06:55.177Z,3.40
2023-03-08T00:09:21.768Z,6.23
2023-03-08T00:11:48.330Z,3.00
2023-03-08T00:14:15.000Z,3.93
2023-03-08T00:16:41.550Z,4.73
2023-03-08T00:19:08.262Z,3.73
2023-03-08T00:21:35.294Z,4.27
2023-03-08T00:24:01.939Z,4.27
2023-03-08T00:26:28.553Z,5.63
2023-03-08T00:28:55.247Z,3.77
2023-03-08T00:31:22.123Z,9.43
2023-03-08T00:33:52.841Z,11.27
2023-03-08T00:36:20.059Z,15.03
2023-03-08T00:38:47.906Z,11.67
2023-03-08T00:41:14.921Z,14.83
2023-03-08T00:43:42.499Z,12.90
2023-03-08T00:46:09.748Z,13.40
2023-03-08T00:48:36.406Z,16.40
2023-03-08T00:51:03.060Z,14.50
2023-03-08T00:53:29.680Z,31.07
2023-03-08T00:55:57.671Z,14.77
2023-03-08T00:58:26.179Z,17.83
2023-03-08T01:00:53.465Z,14.63
2023-03-08T01:03:21.781Z,8.17
2023-03-08T01:05:50.969Z,10.47
2023-03-08T01:08:18.619Z,11.03
2023-03-08T01:10:59.857Z,9.60
2023-03-08T01:13:32.098Z,10.47
2023-03-08T01:15:59.125Z,7.83
2023-03-08T01:18:26.125Z,12.57
2023-03-08T01:21:03.533Z,8.23
2023-03-08T01:23:31.329Z,10.93
2023-03-08T01:26:05.254Z,10.27
2023-03-08T01:28:32.819Z,13.27
2023-03-08T01:31:09.064Z,14.40
2023-03-08T01:33:35.737Z,16.00
2023-03-08T01:36:06.934Z,14.57
2023-03-08T01:38:33.893Z,14.47
2023-03-08T01:41:02.421Z,13.70
2023-03-08T01:43:34.210Z,11.05
2023-03-08T01:46:13.166Z,11.00
2023-03-08T01:49:01.396Z,12.83
2023-03-08T01:51:36.324Z,10.33
2023-03-08T01:54:16.346Z,12.20
2023-03-08T01:56:44.318Z,8.60
2023-03-08T01:59:11.696Z,9.10
2023-03-08T02:01:39.436Z,10.57
2023-03-08T02:04:06.342Z,12.23
2023-03-08T02:06:33.217Z,14.73
2023-03-08T02:09:04.240Z,16.27
2023-03-08T02:11:33.403Z,18.77
2023-03-08T02:14:00.163Z,15.20
2023-03-08T02:16:26.718Z,19.13
2023-03-08T02:19:04.848Z,16.47
2023-03-08T02:21:32.641Z,18.53
2023-03-08T02:24:07.752Z,16.60
2023-03-08T02:26:36.469Z,17.43
2023-03-08T02:29:03.003Z,13.07
2023-03-08T02:31:29.580Z,13.73
2023-03-08T02:33:56.118Z,16.43
2023-03-08T02:36:22.726Z,11.43
2023-03-08T02:38:49.400Z,13.00
2023-03-08T02:41:16.040Z,11.57
2023-03-08T02:43:42.598Z,13.13
2023-03-08T02:46:12.690Z,11.23
2023-03-08T02:48:39.308Z,13.50
2023-03-08T02:51:06.170Z,13.00
2023-03-08T02:53:32.822Z,12.13
2023-03-08T02:55:59.378Z,10.07
2023-03-08T02:58:26.272Z,10.83
2023-03-08T03:00:52.890Z,11.90
2023-03-08T03:03:19.502Z,12.93
2023-03-08T03:05:46.140Z,12.57
2023-03-08T03:08:12.914Z,10.20
2023-03-08T03:13:06.285Z,10.23
2023-03-08T03:15:33.307Z,8.27
2023-03-08T03:18:01.128Z,9.33
2023-03-08T03:20:27.697Z,12.17
2023-03-08T03:22:54.288Z,10.70
2023-03-08T03:25:20.897Z,8.80
2023-03-08T03:27:47.542Z,9.77
2023-03-08T03:30:14.368Z,11.87
2023-03-08T03:32:41.063Z,13.03
2023-03-08T03:35:08.032Z,12.90
2023-03-08T03:37:36.619Z,11.77
2023-03-08T03:40:04.267Z,13.53
2023-03-08T03:42:30.869Z,16.17
2023-03-08T03:44:57.518Z,11.33
2023-03-08T03:47:24.126Z,14.47
2023-03-08T03:49:50.782Z,11.07
2023-03-08T03:52:17.370Z,13.40
2023-03-08T03:54:43.906Z,12.63
2023-03-08T03:57:10.880Z,13.97
2023-03-08T03:59:37.443Z,11.60
2023-03-08T04:02:04.128Z,11.43
2023-03-08T04:04:30.764Z,10.33
2023-03-08T04:06:57.326Z,10.87
2023-03-08T04:09:23.880Z,10.27
2023-03-08T04:11:50.409Z,8.73
2023-03-08T04:14:17.522Z,15.03
2023-03-08T04:16:44.214Z,10.87
2023-03-08T04:19:12.987Z,11.90
2023-03-08T04:21:40.069Z,9.17
2023-03-08T04:24:07.122Z,12.57
2023-03-08T04:26:33.898Z,17.87
2023-03-08T04:29:00.574Z,14.03
2023-03-08T04:31:28.833Z,15.90
2023-03-08T04:33:55.986Z,20.07
2023-03-08T04:36:23.222Z,15.50
2023-03-08T04:38:50.452Z,11.80
2023-03-08T04:41:17.360Z,16.63
2023-03-08T04:43:48.483Z,23.13
2023-03-08T04:46:16.084Z,34.20
2023-03-08T04:48:42.697Z,36.53
2023-03-08T04:51:10.765Z,43.17
2023-03-08T04:53:39.117Z,32.57
2023-03-08T04:56:06.738Z,27.33
2023-03-08T04:58:33.945Z,14.23
2023-03-08T05:01:02.898Z,14.47
2023-03-08T05:03:29.537Z,15.17
2023-03-08T05:05:56.264Z,20.97
2023-03-08T05:08:23.126Z,20.77
2023-03-08T05:11:01.084Z,20.27
2023-03-08T05:13:29.753Z,24.90
2023-03-08T05:15:57.036Z,32.33
2023-03-08T05:18:23.698Z,28.57
2023-03-08T05:20:57.968Z,17.80
2023-03-08T05:23:27.133Z,20.00
2023-03-08T05:25:56.611Z,21.20
2023-03-08T05:28:24.443Z,28.13
2023-03-08T05:30:51.092Z,32.70
2023-03-08T05:33:18.177Z,18.67
2023-03-08T05:35:47.085Z,39.07
2023-03-08T05:38:13.701Z,43.37
2023-03-08T05:40:40.296Z,65.90
2023-03-08T05:43:06.969Z,37.67
2023-03-08T05:45:33.725Z,49.00
2023-03-08T05:48:00.394Z,59.40
2023-03-08T05:50:27.059Z,54.13
2023-03-08T05:52:53.655Z,48.13
2023-03-08T05:55:20.234Z,48.57
2023-03-08T05:57:46.845Z,52.03
2023-03-08T06:00:14.343Z,45.03
2023-03-08T06:02:41.813Z,45.43
2023-03-08T06:05:08.888Z,47.93
2023-03-08T06:07:35.639Z,53.73
2023-03-08T06:10:02.397Z,48.03
2023-03-08T06:12:28.924Z,42.73
2023-03-08T06:14:55.653Z,48.13
2023-03-08T06:17:22.279Z,54.53
2023-03-08T06:19:48.913Z,56.97
2023-03-08T06:22:16.876Z,41.77
2023-03-08T06:24:43.447Z,38.40
2023-03-08T06:27:09.988Z,33.40
2023-03-08T06:29:36.654Z,31.07
2023-03-08T06:32:03.360Z,26.57
2023-03-08T06:34:29.951Z,24.03
2023-03-08T06:36:59.743Z,26.30
2023-03-08T06:39:27.027Z,16.77
2023-03-08T06:41:53.606Z,22.40
2023-03-08T06:44:20.208Z,26.80
2023-03-08T06:46:46.823Z,26.00
2023-03-08T06:49:13.417Z,37.80
2023-03-08T06:51:40.034Z,26.77
2023-03-08T06:54:06.668Z,22.07
2023-03-08T06:56:33.205Z,28.67
2023-03-08T06:58:59.833Z,25.37
2023-03-08T07:01:26.517Z,29.10
2023-03-08T07:03:53.511Z,30.70
2023-03-08T07:06:20.069Z,33.10
2023-03-08T07:08:46.700Z,26.20
2023-03-08T07:11:13.294Z,32.90
2023-03-08T07:13:40.047Z,29.50
2023-03-08T07:16:09.191Z,35.20
2023-03-08T07:18:35.929Z,36.77
2023-03-08T07:21:03.153Z,30.10
2023-03-08T07:23:29.750Z,41.27
2023-03-08T07:25:56.598Z,32.80
2023-03-08T07:28:23.294Z,26.50
2023-03-08T07:30:51.989Z,28.10
2023-03-08T07:33:20.069Z,27.30
2023-03-08T07:35:47.129Z,23.37
2023-03-08T07:38:13.994Z,19.67
2023-03-08T07:40:40.583Z,24.30
2023-03-08T07:43:07.565Z,23.13
2023-03-08T07:45:34.249Z,28.50
2023-03-08T07:48:00.893Z,28.87
2023-03-08T07:50:27.593Z,31.20
2023-03-08T07:52:54.186Z,40.90
2023-03-08T07:55:21.565Z,35.13
2023-03-08T07:57:48.179Z,32.70
2023-03-08T08:00:15.058Z,28.93
2023-03-08T08:02:42.238Z,25.23
2023-03-08T08:05:09.418Z,22.53
2023-03-08T08:07:35.985Z,28.53
2023-03-08T08:10:02.556Z,23.03
2023-03-08T08:12:29.151Z,19.07
2023-03-08T08:14:55.794Z,19.87
2023-03-08T08:17:22.668Z,17.17
2023-03-08T08:19:49.385Z,17.33
2023-03-08T08:22:15.965Z,12.93
2023-03-08T08:24:42.740Z,15.90
2023-03-08T08:27:09.292Z,8.37
2023-03-08T08:29:37.379Z,8.97
2023-03-08T08:32:04.698Z,15.53
2023-03-08T08:34:31.398Z,11.23
2023-03-08T08:36:57.978Z,12.30
2023-03-08T08:39:24.560Z,8.23
2023-03-08T08:41:51.241Z,8.33
2023-03-08T08:44:17.867Z,8.27
2023-03-08T08:46:44.497Z,7.20
2023-03-08T08:49:11.413Z,8.57
2023-03-08T08:51:38.107Z,9.37
2023-03-08T08:54:04.910Z,5.63
2023-03-08T08:56:31.612Z,7.07
2023-03-08T08:59:01.199Z,6.80
2023-03-08T09:01:30.551Z,7.40
2023-03-08T09:03:57.369Z,6.30
2023-03-08T09:06:25.231Z,7.97
2023-03-08T09:08:53.210Z,6.23
2023-03-08T09:11:19.923Z,4.77
2023-03-08T09:13:46.630Z,5.27
2023-03-08T09:16:24.263Z,6.03
2023-03-08T09:18:51.629Z,5.10
2023-03-08T09:21:18.634Z,3.83
2023-03-08T09:23:45.389Z,5.37
2023-03-08T09:26:11.964Z,4.73
2023-03-08T09:28:38.559Z,5.57
2023-03-08T09:31:12.862Z,4.73
2023-03-08T09:33:41.321Z,6.87
2023-03-08T09:36:08.306Z,7.30
2023-03-08T09:38:35.024Z,6.20
2023-03-08T09:41:21.755Z,8.47
2023-03-08T09:44:06.847Z,4.53
2023-03-08T09:46:36.734Z,5.17
2023-03-08T09:49:04.024Z,3.63
2023-03-08T09:51:35.363Z,7.10
2023-03-08T09:54:08.017Z,5.27
2023-03-08T09:56:38.970Z,6.23
2023-03-08T09:59:12.245Z,3.30
2023-03-08T10:02:03.233Z,3.07
2023-03-08T10:04:36.480Z,2.43
2023-03-08T10:07:41.580Z,3.47
2023-03-08T10:10:22.983Z,7.30
2023-03-08T10:13:00.932Z,4.00
2023-03-08T10:15:28.489Z,4.17
2023-03-08T10:18:30.284Z,3.87
2023-03-08T10:20:58.645Z,2.57
2023-03-08T10:23:29.403Z,3.53
2023-03-08T10:25:56.023Z,4.97
2023-03-08T10:28:24.684Z,3.03
2023-03-08T10:30:53.819Z,3.30
2023-03-08T10:33:24.463Z,3.80
2023-03-08T10:36:14.263Z,3.87
2023-03-08T10:38:40.932Z,3.00
2023-03-08T10:41:10.509Z,3.13
2023-03-08T10:43:41.011Z,3.67
2023-03-08T10:46:16.233Z,3.10
2023-03-08T10:48:43.388Z,2.40
2023-03-08T10:51:20.742Z,1.73
2023-03-08T10:54:16.515Z,3.17
2023-03-08T10:56:52.939Z,3.20
2023-03-08T10:59:36.568Z,3.60
2023-03-08T11:02:22.509Z,2.23
2023-03-08T11:04:58.616Z,3.07
2023-03-08T11:07:29.142Z,2.87
2023-03-08T11:10:26.206Z,3.90
2023-03-08T11:13:12.213Z,2.00
2023-03-08T11:15:40.628Z,2.37
2023-03-08T11:18:19.544Z,2.60
2023-03-08T11:20:56.514Z,4.87
2023-03-08T11:23:26.108Z,3.43
2023-03-08T11:26:01.386Z,3.07
2023-03-08T11:28:46.953Z,3.47
2023-03-08T11:31:18.412Z,2.83
2023-03-08T11:33:51.543Z,3.07
2023-03-08T11:36:43.043Z,2.57
2023-03-08T11:39:24.716Z,3.27
2023-03-08T11:42:02.827Z,2.00
2023-03-08T11:44:47.523Z,2.30
2023-03-08T11:47:41.295Z,1.40
2023-03-08T11:50:19.907Z,2.40
2023-03-08T11:52:55.574Z,1.97
2023-03-08T11:55:29.249Z,2.20
2023-03-08T11:58:09.223Z,3.80
2023-03-08T12:00:38.738Z,2.47
2023-03-08T12:03:20.759Z,3.33
2023-03-08T12:05:53.875Z,3.23
2023-03-08T12:08:31.556Z,2.43
2023-03-08T12:11:20.081Z,4.87
2023-03-08T12:13:49.258Z,3.33
2023-03-08T12:16:18.949Z,2.37
2023-03-08T12:18:59.826Z,1.93
2023-03-08T12:21:49.145Z,2.43
2023-03-08T12:24:43.139Z,2.43
2023-03-08T12:27:12.922Z,2.83
2023-03-08T12:29:43.762Z,4.93
2023-03-08T12:32:12.271Z,2.33
2023-03-08T12:34:40.641Z,2.63
2023-03-08T12:37:26.111Z,3.07
2023-03-08T12:40:28.389Z,2.50
2023-03-08T12:43:10.405Z,2.43
2023-03-08T12:45:38.125Z,3.53
2023-03-08T12:48:04.761Z,7.30
2023-03-08T12:50:39.644Z,3.33
2023-03-08T12:53:27.134Z,2.90
2023-03-08T12:56:18.624Z,3.93
2023-03-08T12:58:55.311Z,3.10
2023-03-08T13:01:30.529Z,2.63
2023-03-08T13:03:57.688Z,2.90
2023-03-08T13:06:27.081Z,3.23
2023-03-08T13:09:06.677Z,1.90
2023-03-08T13:11:43.240Z,3.80
2023-03-08T13:14:46.412Z,1.77
2023-03-08T13:17:33.454Z,3.00
2023-03-08T13:20:07.999Z,4.17
2023-03-08T13:22:46.953Z,2.17
2023-03-08T13:25:42.727Z,2.63
2023-03-08T13:28:17.343Z,4.20
2023-03-08T13:30:58.291Z,3.87
2023-03-08T13:33:30.580Z,4.07
2023-03-08T13:36:04.692Z,2.97
2023-03-08T13:38:36.795Z,3.73
2023-03-08T13:41:03.642Z,3.33
2023-03-08T13:43:32.244Z,2.40
2023-03-08T13:46:01.084Z,4.17
2023-03-08T13:48:31.126Z,2.77
2023-03-08T13:50:59.442Z,2.00
2023-03-08T13:53:29.505Z,2.47
2023-03-08T13:56:02.713Z,3.13
2023-03-08T13:58:32.477Z,3.10
2023-03-08T14:01:02.117Z,3.90
2023-03-08T14:03:31.153Z,4.43
2023-03-08T14:05:58.283Z,4.70
2023-03-08T14:08:26.584Z,2.03
2023-03-08T14:11:02.387Z,3.47
2023-03-08T14:13:32.567Z,4.27
2023-03-08T14:16:01.505Z,3.13
2023-03-08T14:18:48.875Z,2.97
2023-03-08T14:21:17.854Z,4.23
2023-03-08T14:23:50.393Z,2.83
2023-03-08T14:26:53.036Z,3.57
2023-03-08T14:29:22.378Z,5.43
2023-03-08T14:32:04.471Z,3.60
2023-03-08T14:34:49.831Z,4.10
2023-03-08T14:37:30.595Z,4.50
2023-03-08T14:40:21.262Z,4.37
2023-03-08T14:42:49.741Z,4.43
2023-03-08T14:45:38.183Z,2.97
2023-03-08T14:48:20.009Z,3.33
2023-03-08T14:50:52.625Z,3.17
2023-03-08T14:53:35.169Z,4.27
2023-03-08T14:56:12.970Z,4.73
2023-03-08T14:58:49.272Z,4.17
2023-03-08T15:01:34.264Z,6.20
2023-03-08T15:04:01.720Z,8.33
2023-03-08T15:06:31.046Z,9.33
2023-03-08T15:08:58.860Z,8.73
2023-03-08T15:11:26.392Z,5.87
2023-03-08T15:13:52.994Z,7.67
2023-03-08T15:16:20.535Z,5.43
2023-03-08T15:18:47.170Z,7.20
2023-03-08T15:21:15.112Z,9.53
2023-03-08T15:23:42.980Z,6.70
2023-03-08T15:26:14.436Z,7.90
2023-03-08T15:28:40.982Z,6.60
2023-03-08T15:31:08.788Z,5.00
2023-03-08T15:33:35.370Z,5.47
2023-03-08T15:36:02.321Z,8.00
2023-03-08T15:38:29.061Z,10.23
2023-03-08T15:40:55.645Z,7.63
2023-03-08T15:43:22.399Z,9.77
2023-03-08T15:45:49.019Z,7.00
2023-03-08T15:48:17.673Z,6.70
2023-03-08T15:50:45.171Z,10.23
2023-03-08T15:53:13.385Z,14.43
2023-03-08T15:55:43.321Z,12.27
2023-03-08T15:58:11.736Z,8.80
2023-03-08T16:00:39.722Z,11.63
2023-03-08T16:03:06.379Z,13.00
2023-03-08T16:05:33.100Z,13.87
2023-03-08T16:08:01.910Z,12.63
2023-03-08T16:10:33.336Z,15.00
2023-03-08T16:12:59.944Z,17.10
2023-03-08T16:15:26.876Z,18.77
2023-03-08T16:17:53.493Z,12.37
2023-03-08T16:20:21.619Z,49.40
2023-03-08T16:22:48.189Z,19.73
2023-03-08T16:25:14.760Z,20.33
2023-03-08T16:27:41.384Z,18.40
2023-03-08T16:30:09.059Z,20.80
2023-03-08T16:32:35.789Z,209.17
2023-03-08T16:35:02.473Z,101.10
2023-03-08T16:37:29.130Z,88.00
2023-03-08T16:39:59.147Z,27.70
2023-03-08T16:42:25.864Z,30.67
2023-03-08T16:44:55.270Z,48.20
2023-03-08T16:47:23.707Z,284.87
2023-03-08T16:49:50.294Z,225.43
2023-03-08T16:52:17.951Z,457.47
2023-03-08T16:54:45.228Z,468.33
2023-03-08T16:57:19.101Z,29.73
2023-03-08T16:59:46.794Z,19.57
2023-03-08T17:02:18.942Z,33.37
2023-03-08T17:04:45.899Z,114.47
2023-03-08T17:07:12.554Z,92.30
2023-03-08T17:09:39.634Z,38.00
2023-03-08T17:12:07.650Z,19.37
2023-03-08T17:14:34.971Z,36.50
2023-03-08T17:17:02.206Z,31.92
2023-03-08T17:19:28.865Z,33.10
2023-03-08T17:21:55.823Z,49.13
2023-03-08T17:24:22.520Z,34.63
2023-03-08T17:26:51.218Z,28.73
2023-03-08T17:29:18.052Z,13.00
2023-03-08T17:31:44.949Z,8.23
2023-03-08T17:34:12.359Z,20.97
2023-03-08T17:36:40.044Z,19.33
2023-03-08T17:39:07.247Z,37.03
2023-03-08T17:41:34.431Z,14.87
2023-03-08T17:44:01.446Z,23.87
2023-03-08T17:46:28.537Z,37.17
2023-03-08T17:48:55.697Z,47.27
2023-03-08T17:51:27.362Z,52.47
2023-03-08T17:53:54.539Z,44.40
2023-03-08T17:56:25.068Z,40.63
2023-03-08T17:58:52.225Z,103.73
2023-03-08T18:01:20.796Z,30.30
2023-03-08T18:03:48.379Z,47.63
2023-03-08T18:06:18.111Z,26.47
2023-03-08T18:08:44.680Z,16.90
2023-03-08T18:11:11.258Z,52.90
2023-03-08T18:13:39.761Z,95.00
2023-03-08T18:16:07.356Z,131.90
2023-03-08T18:18:34.055Z,337.60
2023-03-08T18:21:12.478Z,144.27
2023-03-08T18:23:41.812Z,52.80
2023-03-08T18:26:10.275Z,129.63
2023-03-08T18:28:36.936Z,83.50
2023-03-08T18:31:09.067Z,28.87
2023-03-08T18:33:35.968Z,36.10
2023-03-08T18:36:02.566Z,28.30
2023-03-08T18:38:29.445Z,37.13
2023-03-08T18:40:56.083Z,36.75
2023-03-08T18:43:22.782Z,40.40
2023-03-08T18:45:54.195Z,24.23
2023-03-08T18:48:21.536Z,31.85
2023-03-08T18:50:48.276Z,23.03
2023-03-08T18:53:18.290Z,33.80
2023-03-08T18:55:55.731Z,33.57
2023-03-08T18:58:24.483Z,31.37
2023-03-08T19:00:51.615Z,29.50
2023-03-08T19:03:18.385Z,94.13
2023-03-08T19:05:44.993Z,72.83
2023-03-08T19:08:11.628Z,93.30
2023-03-08T19:10:38.262Z,110.63
2023-03-08T19:13:04.887Z,85.67
2023-03-08T19:15:31.441Z,197.77
2023-03-08T19:17:59.055Z,241.70
2023-03-08T19:20:26.628Z,48.73
2023-03-08T19:22:53.687Z,67.57
2023-03-08T19:25:20.419Z,93.53
2023-03-08T19:27:47.036Z,74.93
2023-03-08T19:30:14.153Z,121.87
2023-03-08T19:32:42.617Z,115.00
2023-03-08T19:35:09.667Z,69.77
2023-03-08T19:37:36.275Z,175.17
2023-03-08T19:40:03.080Z,254.17
2023-03-08T19:42:29.909Z,212.27
2023-03-08T19:44:56.537Z,61.77
2023-03-08T19:47:23.144Z,73.23
2023-03-08T19:49:50.087Z,86.00
2023-03-08T19:52:16.746Z,63.23
2023-03-08T19:54:43.441Z,53.77
2023-03-08T19:57:10.643Z,53.13
2023-03-08T19:59:37.849Z,56.57
2023-03-08T20:02:06.850Z,48.20
2023-03-08T20:04:33.576Z,43.77
2023-03-08T20:07:01.172Z,42.07
2023-03-08T20:09:27.965Z,134.20
2023-03-08T20:11:58.776Z,60.47
2023-03-08T20:14:29.707Z,51.87
2023-03-08T20:16:57.076Z,47.50
2023-03-08T20:19:23.709Z,42.90
2023-03-08T20:21:50.586Z,44.50
2023-03-08T20:24:22.260Z,43.87
2023-03-08T20:26:49.040Z,51.10
2023-03-08T20:29:16.234Z,43.83
2023-03-08T20:31:43.995Z,48.17
2023-03-08T20:34:10.845Z,69.13
2023-03-08T20:36:37.817Z,76.93
2023-03-08T20:39:04.987Z,78.17
2023-03-08T20:41:31.648Z,33.70
2023-03-08T20:43:58.281Z,25.70
2023-03-08T20:46:27.860Z,22.70
2023-03-08T20:48:54.515Z,25.27
2023-03-08T20:51:22.202Z,33.33
2023-03-08T20:53:50.457Z,35.87
2023-03-08T20:56:18.926Z,59.00
2023-03-08T20:58:45.727Z,36.03
2023-03-08T21:01:21.277Z,35.17
2023-03-08T21:03:48.828Z,30.33
2023-03-08T21:06:24.524Z,27.77
2023-03-08T21:08:51.630Z,19.93
2023-03-08T21:11:18.544Z,20.33
2023-03-08T21:13:47.691Z,14.07
2023-03-08T21:16:15.894Z,14.17
2023-03-08T21:18:45.880Z,14.77
2023-03-08T21:21:24.582Z,9.20
2023-03-08T21:23:54.172Z,5.47
2023-03-08T21:26:22.399Z,6.53
2023-03-08T21:28:51.469Z,6.57
2023-03-08T21:31:20.069Z,6.60
2023-03-08T21:33:47.728Z,10.80
2023-03-08T21:36:14.486Z,5.63
2023-03-08T21:38:41.190Z,3.67
2023-03-08T21:41:17.633Z,6.40
2023-03-08T21:43:44.267Z,6.60
2023-03-08T21:46:11.068Z,6.57
2023-03-08T21:48:38.178Z,8.47
2023-03-08T21:51:06.305Z,11.80
2023-03-08T21:53:33.134Z,7.47
2023-03-08T21:55:59.886Z,8.97
2023-03-08T21:58:26.484Z,6.13
2023-03-08T22:00:54.194Z,5.73
2023-03-08T22:03:20.845Z,3.23
2023-03-08T22:05:47.450Z,3.33
2023-03-08T22:08:14.298Z,3.87
2023-03-08T22:10:40.913Z,4.47
2023-03-08T22:13:07.608Z,3.67
2023-03-08T22:15:34.250Z,4.30
2023-03-08T22:18:01.021Z,4.37
2023-03-08T22:20:27.605Z,4.73
2023-03-08T22:22:54.218Z,5.50
2023-03-08T22:25:20.847Z,13.57
2023-03-08T22:27:47.425Z,12.50
2023-03-08T22:30:14.452Z,11.60
2023-03-08T22:32:41.985Z,10.43
2023-03-08T22:35:10.510Z,13.57
2023-03-08T22:37:37.722Z,10.80
2023-03-08T22:40:07.174Z,8.20
2023-03-08T22:42:34.348Z,9.20
2023-03-08T22:45:00.973Z,8.67
2023-03-08T22:47:27.737Z,12.37
2023-03-08T22:49:54.335Z,9.67
2023-03-08T22:52:21.355Z,10.80
2023-03-08T22:54:48.020Z,13.93
2023-03-08T22:57:15.302Z,12.70
2023-03-08T22:59:43.462Z,14.77
2023-03-08T23:02:10.074Z,14.10
2023-03-08T23:04:36.758Z,12.87
2023-03-08T23:07:03.636Z,17.43
2023-03-08T23:09:30.713Z,15.00
2023-03-08T23:11:59.501Z,12.43
2023-03-08T23:14:26.123Z,12.33
2023-03-08T23:16:52.910Z,12.73
2023-03-08T23:19:20.794Z,13.83
2023-03-08T23:21:48.127Z,10.17
2023-03-08T23:24:15.947Z,26.80
2023-03-08T23:26:45.874Z,17.20
2023-03-08T23:29:13.458Z,10.60
2023-03-08T23:31:43.954Z,7.77
2023-03-08T23:34:11.144Z,4.40
2023-03-08T23:36:37.750Z,3.23
2023-03-08T23:39:04.592Z,4.00
2023-03-08T23:41:31.980Z,4.70
2023-03-08T23:44:00.472Z,4.40
2023-03-08T23:46:27.805Z,6.57
2023-03-08T23:48:56.611Z,4.40
2023-03-08T23:51:24.282Z,4.03
2023-03-08T23:53:52.798Z,10.23
2023-03-08T23:56:27.129Z,11.57
2023-03-08T23:58:55.358Z,7.20
